createdAt,value
2023-10-10T00:01:07.202Z,7.30
2023-10-10T00:03:41.000Z,6.50
2023-10-10T00:06:15.018Z,6.70
2023-10-10T00:08:47.959Z,6.10
2023-10-10T00:11:20.279Z,6.00
2023-10-10T00:13:54.330Z,6.00
2023-10-10T00:16:27.898Z,5.50
2023-10-10T00:19:04.780Z,5.70
2023-10-10T00:21:36.354Z,6.90
2023-10-10T00:24:12.269Z,6.40
2023-10-10T00:26:44.803Z,6.30
2023-10-10T00:29:19.374Z,5.80
2023-10-10T00:31:56.918Z,6.50
2023-10-10T00:34:35.380Z,7.50
2023-10-10T00:37:12.172Z,6.30
2023-10-10T00:39:53.493Z,5.80
2023-10-10T00:42:38.160Z,5.80
2023-10-10T00:45:13.773Z,6.10
2023-10-10T00:47:54.740Z,5.90
2023-10-10T00:50:27.563Z,6.40
2023-10-10T00:55:34.623Z,5.40
2023-10-10T00:58:09.030Z,5.30
2023-10-10T01:00:46.071Z,5.70
2023-10-10T01:03:22.802Z,6.20
2023-10-10T01:05:56.650Z,7.10
2023-10-10T01:08:31.754Z,6.30
2023-10-10T01:11:06.194Z,6.60
2023-10-10T01:13:37.633Z,6.40
2023-10-10T01:16:10.053Z,7.00
2023-10-10T01:18:52.838Z,5.80
2023-10-10T01:21:31.919Z,6.40
2023-10-10T01:24:07.435Z,6.00
2023-10-10T01:26:39.708Z,6.00
2023-10-10T01:29:23.009Z,6.70
2023-10-10T01:31:56.039Z,6.40
2023-10-10T01:34:41.112Z,6.40
2023-10-10T01:37:22.378Z,7.60
2023-10-10T01:40:17.310Z,5.60
2023-10-10T01:42:55.219Z,5.30
2023-10-10T01:45:28.617Z,5.70
2023-10-10T01:48:04.280Z,6.30
2023-10-10T01:50:35.869Z,6.50
2023-10-10T01:53:11.138Z,7.20
2023-10-10T01:55:43.375Z,6.60
2023-10-10T01:58:20.777Z,6.70
2023-10-10T02:00:52.824Z,6.40
2023-10-10T02:03:25.401Z,6.10
2023-10-10T02:05:57.667Z,5.90
2023-10-10T02:08:29.151Z,5.60
2023-10-10T02:11:03.492Z,5.70
2023-10-10T02:13:40.962Z,7.10
2023-10-10T02:16:13.697Z,6.60
2023-10-10T02:18:52.696Z,6.10
2023-10-10T02:21:44.545Z,6.50
2023-10-10T02:24:36.067Z,6.10
2023-10-10T02:27:07.911Z,5.30
2023-10-10T02:29:49.122Z,5.50
2023-10-10T02:32:21.975Z,6.80
2023-10-10T02:35:15.797Z,7.20
2023-10-10T02:37:48.159Z,6.50
2023-10-10T02:40:19.802Z,7.00
2023-10-10T02:43:11.616Z,6.70
2023-10-10T02:45:46.356Z,6.30
2023-10-10T02:48:22.286Z,6.20
2023-10-10T02:50:54.289Z,6.00
2023-10-10T02:53:25.876Z,7.10
2023-10-10T02:56:02.840Z,7.50
2023-10-10T02:58:39.494Z,7.00
2023-10-10T03:01:20.771Z,6.50
2023-10-10T03:03:56.422Z,6.40
2023-10-10T03:06:30.409Z,6.70
2023-10-10T03:09:14.739Z,6.10
2023-10-10T03:12:04.755Z,7.00
2023-10-10T03:14:37.152Z,6.90
2023-10-10T03:17:31.003Z,7.10
2023-10-10T03:20:14.665Z,7.40
2023-10-10T03:23:11.263Z,6.80
2023-10-10T03:25:49.413Z,6.90
2023-10-10T03:28:22.860Z,7.30
2023-10-10T03:31:05.742Z,6.30
2023-10-10T03:33:44.401Z,5.70
2023-10-10T03:39:24.746Z,6.00
2023-10-10T03:42:10.167Z,6.90
2023-10-10T03:47:49.798Z,7.20
2023-10-10T03:50:41.457Z,7.50
2023-10-10T03:53:26.969Z,7.30
2023-10-10T03:56:12.350Z,7.00
2023-10-10T03:58:57.668Z,6.60
2023-10-10T04:01:43.010Z,6.10
2023-10-10T04:04:28.219Z,6.20
2023-10-10T04:07:13.368Z,5.60
2023-10-10T04:10:01.687Z,5.90
2023-10-10T04:12:46.860Z,6.20
2023-10-10T04:15:32.621Z,7.00
2023-10-10T04:18:17.911Z,6.70
2023-10-10T04:21:03.090Z,6.40
2023-10-10T04:23:48.262Z,6.50
2023-10-10T04:26:33.927Z,5.70
2023-10-10T04:29:19.415Z,5.60
2023-10-10T04:32:06.916Z,5.60
2023-10-10T04:34:52.659Z,7.40
2023-10-10T04:37:37.856Z,7.10
2023-10-10T04:40:24.708Z,7.10
2023-10-10T04:43:09.870Z,7.70
2023-10-10T04:45:55.254Z,6.60
2023-10-10T04:48:40.609Z,6.10
2023-10-10T04:51:26.042Z,5.90
2023-10-10T04:54:11.466Z,6.30
2023-10-10T04:56:56.710Z,7.20
2023-10-10T04:59:41.954Z,7.10
2023-10-10T05:02:27.306Z,7.30
2023-10-10T05:05:12.644Z,6.80
2023-10-10T05:07:58.023Z,7.40
2023-10-10T05:10:43.300Z,6.90
2023-10-10T05:13:28.436Z,6.20
2023-10-10T05:16:19.608Z,7.40
2023-10-10T05:19:04.845Z,8.00
2023-10-10T05:21:50.070Z,8.10
2023-10-10T05:24:25.256Z,8.00
2023-10-10T05:26:57.833Z,6.70
2023-10-10T05:29:31.713Z,7.50
2023-10-10T05:32:09.514Z,6.80
2023-10-10T05:34:42.045Z,7.20
2023-10-10T05:37:13.340Z,7.50
2023-10-10T05:39:47.350Z,7.40
2023-10-10T05:42:21.998Z,6.40
2023-10-10T05:44:53.940Z,7.40
2023-10-10T05:47:25.400Z,7.70
2023-10-10T05:49:58.813Z,7.70
2023-10-10T05:52:30.159Z,7.30
2023-10-10T05:55:01.562Z,8.10
2023-10-10T05:57:35.318Z,7.90
2023-10-10T06:00:11.901Z,7.30
2023-10-10T06:02:44.267Z,7.40
2023-10-10T06:05:17.813Z,8.30
2023-10-10T06:07:50.843Z,8.00
2023-10-10T06:10:24.689Z,7.90
2023-10-10T06:12:56.485Z,8.60
2023-10-10T06:15:29.865Z,8.20
2023-10-10T06:18:09.676Z,8.50
2023-10-10T06:23:22.024Z,8.10
2023-10-10T06:26:00.398Z,7.80
2023-10-10T06:28:37.035Z,6.60
2023-10-10T06:31:11.786Z,7.40
2023-10-10T06:33:43.453Z,7.30
2023-10-10T06:36:33.723Z,7.20
2023-10-10T06:39:19.583Z,6.90
2023-10-10T06:41:52.804Z,8.90
2023-10-10T06:44:37.133Z,9.10
2023-10-10T06:47:13.548Z,9.20
2023-10-10T06:49:55.939Z,8.50
2023-10-10T06:52:29.547Z,8.30
2023-10-10T06:55:11.771Z,8.10
2023-10-10T06:57:47.038Z,7.30
2023-10-10T07:00:29.087Z,8.10
2023-10-10T07:03:01.558Z,8.70
2023-10-10T07:05:35.197Z,8.40
2023-10-10T07:08:21.325Z,9.50
2023-10-10T07:10:54.814Z,9.70
2023-10-10T07:13:30.826Z,9.40
2023-10-10T07:16:03.166Z,8.50
2023-10-10T07:18:34.618Z,10.00
2023-10-10T07:21:09.942Z,8.70
2023-10-10T07:23:55.118Z,9.20
2023-10-10T07:26:31.710Z,7.90
2023-10-10T07:29:23.179Z,7.80
2023-10-10T07:31:59.796Z,8.00
2023-10-10T07:34:36.516Z,8.10
2023-10-10T07:37:10.228Z,7.80
2023-10-10T07:39:56.405Z,8.10
2023-10-10T07:42:30.642Z,9.30
2023-10-10T07:45:04.450Z,8.90
2023-10-10T07:47:56.978Z,8.70
2023-10-10T07:50:35.905Z,8.70
2023-10-10T07:53:08.007Z,8.50
2023-10-10T07:55:54.360Z,7.90
2023-10-10T07:58:41.299Z,6.70
2023-10-10T08:01:20.484Z,7.30
2023-10-10T08:03:52.123Z,7.90
2023-10-10T08:06:24.393Z,7.80
2023-10-10T08:11:44.558Z,7.20
2023-10-10T08:14:18.998Z,8.70
2023-10-10T08:17:00.210Z,8.90
2023-10-10T08:19:34.919Z,7.60
2023-10-10T08:22:13.865Z,8.00
2023-10-10T08:24:45.516Z,6.90
2023-10-10T08:27:16.885Z,6.80
2023-10-10T08:29:48.947Z,7.00
2023-10-10T08:32:20.393Z,8.00
2023-10-10T08:34:51.851Z,9.00
2023-10-10T08:37:28.243Z,8.40
2023-10-10T08:40:16.712Z,8.00
2023-10-10T08:42:49.222Z,8.70
2023-10-10T08:45:25.104Z,8.80
2023-10-10T08:48:01.855Z,9.20
2023-10-10T08:50:34.252Z,7.30
2023-10-10T08:53:06.529Z,7.40
2023-10-10T08:55:40.434Z,6.20
2023-10-10T08:58:12.574Z,6.90
2023-10-10T09:00:45.986Z,7.60
2023-10-10T09:03:21.148Z,7.80
2023-10-10T09:05:52.924Z,7.90
2023-10-10T09:08:28.884Z,12.70
2023-10-10T09:11:00.772Z,8.30
2023-10-10T09:13:33.225Z,8.40
2023-10-10T09:16:08.908Z,7.70
2023-10-10T09:18:40.452Z,7.10
2023-10-10T09:21:20.317Z,6.20
2023-10-10T09:24:09.155Z,5.80
2023-10-10T09:26:44.082Z,6.30
2023-10-10T09:29:34.025Z,7.30
2023-10-10T09:32:06.853Z,6.40
2023-10-10T09:34:42.102Z,6.30
2023-10-10T09:37:18.944Z,7.30
2023-10-10T09:39:56.363Z,6.60
2023-10-10T09:42:46.062Z,7.00
2023-10-10T09:45:37.325Z,6.50
2023-10-10T09:48:18.433Z,9.10
2023-10-10T09:51:09.378Z,6.50
2023-10-10T09:53:41.620Z,6.70
2023-10-10T09:56:14.857Z,6.10
2023-10-10T09:58:48.277Z,5.80
2023-10-10T10:01:24.437Z,5.90
2023-10-10T10:04:01.957Z,5.90
2023-10-10T10:07:05.986Z,5.80
2023-10-10T10:10:10.387Z,6.60
2023-10-10T10:13:20.599Z,5.50
2023-10-10T10:16:09.699Z,7.30
2023-10-10T10:18:46.986Z,6.00
2023-10-10T10:21:31.969Z,5.00
2023-10-10T10:24:17.640Z,5.40
2023-10-10T10:27:24.906Z,5.30
2023-10-10T10:30:09.941Z,5.90
2023-10-10T10:32:44.016Z,5.50
2023-10-10T10:35:22.894Z,6.40
2023-10-10T10:38:00.758Z,6.00
2023-10-10T10:40:47.386Z,5.10
2023-10-10T10:43:32.723Z,5.50
2023-10-10T10:46:16.054Z,5.40
2023-10-10T10:48:56.080Z,5.50
2023-10-10T10:51:29.563Z,5.70
2023-10-10T10:54:01.281Z,5.30
2023-10-10T10:56:45.725Z,6.40
2023-10-10T10:59:21.934Z,6.20
2023-10-10T11:01:57.993Z,6.50
2023-10-10T11:04:43.928Z,6.50
2023-10-10T11:07:27.542Z,7.20
2023-10-10T11:10:09.004Z,6.20
2023-10-10T11:12:41.428Z,5.80
2023-10-10T11:15:13.531Z,5.70
2023-10-10T11:18:08.924Z,7.10
2023-10-10T11:20:57.946Z,6.30
2023-10-10T11:23:43.238Z,5.70
2023-10-10T11:26:16.818Z,5.30
2023-10-10T11:28:49.715Z,6.50
2023-10-10T11:31:25.376Z,6.00
2023-10-10T11:34:12.266Z,6.20
2023-10-10T11:36:43.865Z,6.80
2023-10-10T11:39:32.972Z,5.10
2023-10-10T11:42:06.724Z,5.70
2023-10-10T11:44:43.023Z,6.00
2023-10-10T11:47:25.867Z,4.90
2023-10-10T11:50:06.909Z,6.20
2023-10-10T11:52:51.423Z,4.90
2023-10-10T11:55:23.518Z,5.20
2023-10-10T11:57:59.407Z,5.20
2023-10-10T12:00:37.065Z,5.90
2023-10-10T12:03:09.011Z,6.60
2023-10-10T12:05:49.651Z,6.20
2023-10-10T12:08:25.971Z,6.50
2023-10-10T12:11:07.893Z,7.10
2023-10-10T12:13:39.342Z,6.20
2023-10-10T12:16:11.993Z,6.50
2023-10-10T12:18:51.139Z,6.70
2023-10-10T12:21:26.948Z,5.50
2023-10-10T12:24:02.704Z,5.90
2023-10-10T12:26:40.067Z,6.50
2023-10-10T12:29:12.582Z,5.20
2023-10-10T12:31:44.313Z,5.70
2023-10-10T12:34:20.594Z,6.10
2023-10-10T12:36:51.911Z,5.40
2023-10-10T12:39:28.665Z,4.70
2023-10-10T12:42:01.059Z,5.40
2023-10-10T12:44:32.492Z,6.50
2023-10-10T12:47:07.901Z,5.10
2023-10-10T12:49:46.046Z,7.20
2023-10-10T12:52:19.080Z,14.10
2023-10-10T12:54:59.731Z,7.60
2023-10-10T12:57:34.112Z,6.70
2023-10-10T13:00:27.374Z,6.20
2023-10-10T13:02:58.786Z,6.20
2023-10-10T13:05:30.507Z,6.90
2023-10-10T13:08:07.490Z,5.60
2023-10-10T13:10:39.153Z,5.70
2023-10-10T13:13:10.551Z,5.10
2023-10-10T13:15:53.381Z,5.40
2023-10-10T13:18:26.823Z,5.20
2023-10-10T13:21:01.472Z,4.90
2023-10-10T13:23:32.846Z,4.90
2023-10-10T13:26:07.515Z,4.90
2023-10-10T13:28:45.567Z,5.00
2023-10-10T13:31:18.329Z,5.00
2023-10-10T13:33:49.976Z,5.30
2023-10-10T13:36:21.835Z,4.60
2023-10-10T13:38:58.993Z,5.20
2023-10-10T13:41:30.452Z,4.70
2023-10-10T13:44:01.868Z,4.50
2023-10-10T13:46:36.030Z,4.90
2023-10-10T13:49:10.307Z,5.60
2023-10-10T13:51:42.140Z,5.80
2023-10-10T13:54:14.704Z,5.70
2023-10-10T13:56:46.252Z,4.60
2023-10-10T13:59:18.516Z,4.90
2023-10-10T14:01:53.638Z,5.00
2023-10-10T14:04:28.648Z,4.50
2023-10-10T14:07:02.217Z,4.80
2023-10-10T14:09:39.960Z,4.80
2023-10-10T14:12:22.180Z,5.50
2023-10-10T14:14:53.513Z,4.70
2023-10-10T14:17:24.964Z,4.50
2023-10-10T14:19:59.512Z,4.60
2023-10-10T14:22:37.935Z,4.60
2023-10-10T14:25:21.364Z,4.80
2023-10-10T14:27:52.704Z,4.50
2023-10-10T14:30:24.929Z,4.40
2023-10-10T14:32:57.721Z,4.30
2023-10-10T14:35:29.387Z,4.90
2023-10-10T14:38:02.843Z,5.00
2023-10-10T14:40:35.776Z,5.60
2023-10-10T14:43:08.221Z,4.20
2023-10-10T14:45:44.301Z,4.60
2023-10-10T14:48:20.398Z,4.30
2023-10-10T14:50:54.001Z,4.40
2023-10-10T14:53:25.550Z,4.90
2023-10-10T14:55:57.075Z,4.50
2023-10-10T14:58:28.389Z,4.40
2023-10-10T15:00:59.895Z,4.10
2023-10-10T15:03:42.399Z,4.20
2023-10-10T15:06:17.092Z,4.20
2023-10-10T15:08:48.444Z,4.70
2023-10-10T15:11:19.814Z,4.80
2023-10-10T15:13:51.351Z,4.30
2023-10-10T15:16:24.342Z,4.30
2023-10-10T15:18:55.892Z,5.40
2023-10-10T15:21:33.925Z,4.70
2023-10-10T15:24:12.570Z,5.10
2023-10-10T15:26:46.891Z,4.90
2023-10-10T15:29:22.096Z,5.40
2023-10-10T15:31:53.557Z,5.50
2023-10-10T15:34:24.887Z,4.70
2023-10-10T15:36:58.377Z,4.60
2023-10-10T15:39:31.122Z,4.60
2023-10-10T15:42:05.861Z,4.80
2023-10-10T15:44:42.353Z,4.10
2023-10-10T15:47:14.050Z,4.70
2023-10-10T15:49:48.052Z,5.30
2023-10-10T15:52:19.721Z,4.40
2023-10-10T15:54:51.937Z,6.50
2023-10-10T15:57:27.288Z,4.80
2023-10-10T15:59:58.635Z,5.50
2023-10-10T16:02:32.205Z,4.40
2023-10-10T16:05:05.118Z,4.20
2023-10-10T16:07:36.392Z,4.30
2023-10-10T16:10:08.974Z,4.60
2023-10-10T16:12:44.037Z,4.70
2023-10-10T16:15:30.448Z,5.90
2023-10-10T16:18:02.480Z,7.20
2023-10-10T16:20:37.402Z,6.10
2023-10-10T16:23:09.624Z,5.10
2023-10-10T16:25:41.332Z,5.70
2023-10-10T16:28:12.839Z,5.60
2023-10-10T16:30:44.209Z,5.10
2023-10-10T16:33:15.614Z,5.20
2023-10-10T16:35:47.636Z,5.40
2023-10-10T16:38:23.538Z,5.60
2023-10-10T16:40:55.086Z,5.70
2023-10-10T16:43:26.645Z,5.30
2023-10-10T16:45:58.014Z,5.70
2023-10-10T16:48:32.576Z,5.00
2023-10-10T16:51:04.081Z,5.30
2023-10-10T16:53:35.360Z,5.40
2023-10-10T16:56:07.987Z,6.00
2023-10-10T17:01:13.787Z,6.80
2023-10-10T17:03:47.701Z,6.50
2023-10-10T17:06:23.606Z,7.30
2023-10-10T17:08:56.874Z,6.50
2023-10-10T17:11:28.880Z,6.30
2023-10-10T17:14:04.576Z,6.00
2023-10-10T17:16:36.611Z,5.00
2023-10-10T17:19:16.994Z,5.40
2023-10-10T17:21:49.396Z,5.10
2023-10-10T17:24:21.205Z,6.40
2023-10-10T17:26:54.959Z,5.80
2023-10-10T17:29:27.900Z,6.20
2023-10-10T17:31:59.306Z,8.60
2023-10-10T17:34:34.551Z,7.60
2023-10-10T17:37:12.641Z,6.40
2023-10-10T17:39:44.120Z,6.70
2023-10-10T17:42:15.424Z,5.60
2023-10-10T17:44:46.942Z,4.90
2023-10-10T17:47:18.366Z,4.90
2023-10-10T17:49:49.678Z,5.40
2023-10-10T17:52:20.996Z,6.10
2023-10-10T17:54:52.434Z,5.30
2023-10-10T17:57:24.091Z,5.30
2023-10-10T17:59:55.392Z,5.30
2023-10-10T18:02:26.808Z,5.10
2023-10-10T18:04:59.654Z,5.20
2023-10-10T18:07:30.942Z,5.50
2023-10-10T18:10:02.221Z,5.50
2023-10-10T18:12:35.525Z,5.10
2023-10-10T18:15:11.261Z,4.30
2023-10-10T18:17:43.337Z,4.90
2023-10-10T18:20:17.706Z,5.30
2023-10-10T18:22:52.562Z,5.40
2023-10-10T18:25:27.089Z,4.90
2023-10-10T18:27:58.365Z,4.70
2023-10-10T18:30:29.696Z,4.90
2023-10-10T18:33:02.051Z,4.40
2023-10-10T18:35:33.476Z,4.60
2023-10-10T18:38:08.780Z,4.80
2023-10-10T18:40:45.304Z,3.80
2023-10-10T18:43:16.731Z,3.80
2023-10-10T18:45:48.054Z,4.60
2023-10-10T18:48:20.120Z,4.60
2023-10-10T18:50:51.727Z,4.80
2023-10-10T18:53:26.669Z,5.30
2023-10-10T18:55:59.854Z,4.60
2023-10-10T18:58:32.406Z,5.20
2023-10-10T19:01:03.780Z,5.10
2023-10-10T19:03:35.385Z,5.90
2023-10-10T19:06:07.880Z,5.40
2023-10-10T19:08:39.379Z,5.20
2023-10-10T19:11:12.090Z,4.90
2023-10-10T19:13:50.030Z,5.20
2023-10-10T19:16:22.746Z,5.20
2023-10-10T19:18:55.596Z,5.50
2023-10-10T19:21:31.706Z,7.60
2023-10-10T19:24:03.500Z,6.10
2023-10-10T19:26:36.421Z,6.40
2023-10-10T19:29:08.775Z,5.90
2023-10-10T19:31:41.328Z,6.90
2023-10-10T19:34:13.046Z,5.10
2023-10-10T19:36:45.929Z,5.40
2023-10-10T19:39:21.766Z,6.40
2023-10-10T19:41:54.168Z,6.50
2023-10-10T19:44:27.091Z,7.80
2023-10-10T19:46:58.495Z,6.10
2023-10-10T19:49:35.955Z,7.10
2023-10-10T19:52:07.607Z,6.40
2023-10-10T19:54:40.899Z,6.80
2023-10-10T19:57:14.096Z,5.80
2023-10-10T19:59:45.913Z,6.20
2023-10-10T20:02:18.489Z,5.70
2023-10-10T20:04:50.170Z,6.40
2023-10-10T20:07:21.558Z,6.70
2023-10-10T20:09:53.688Z,6.40
2023-10-10T20:12:25.424Z,6.90
2023-10-10T20:14:57.350Z,6.50
2023-10-10T20:17:28.865Z,7.90
2023-10-10T20:20:03.770Z,7.00
2023-10-10T20:22:36.543Z,6.50
2023-10-10T20:25:13.040Z,6.20
2023-10-10T20:27:44.299Z,5.50
2023-10-10T20:30:19.593Z,6.70
2023-10-10T20:32:53.938Z,5.50
2023-10-10T20:35:27.164Z,6.70
2023-10-10T20:38:00.557Z,6.10
2023-10-10T20:40:32.324Z,6.60
2023-10-10T20:43:05.673Z,7.00
2023-10-10T20:45:37.323Z,8.10
2023-10-10T20:48:12.703Z,6.70
2023-10-10T20:50:45.293Z,7.60
2023-10-10T20:53:17.804Z,6.20
2023-10-10T20:55:50.857Z,7.40
2023-10-10T20:58:23.209Z,5.90
2023-10-10T21:00:56.136Z,6.10
2023-10-10T21:03:27.826Z,8.50
2023-10-10T21:05:59.457Z,8.50
2023-10-10T21:08:31.966Z,7.40
2023-10-10T21:11:10.462Z,7.00
2023-10-10T21:13:42.048Z,6.80
2023-10-10T21:16:17.199Z,5.70
2023-10-10T21:18:49.235Z,5.80
2023-10-10T21:21:23.053Z,6.00
2023-10-10T21:23:54.599Z,5.60
2023-10-10T21:26:26.019Z,6.30
2023-10-10T21:28:57.328Z,6.60
2023-10-10T21:31:30.599Z,7.10
2023-10-10T21:34:02.198Z,6.70
2023-10-10T21:36:33.822Z,6.80
2023-10-10T21:39:06.411Z,7.80
2023-10-10T21:44:12.080Z,5.20
2023-10-10T21:46:43.488Z,5.60
2023-10-10T21:49:16.334Z,5.90
2023-10-10T21:51:47.850Z,5.80
2023-10-10T21:54:23.244Z,6.10
2023-10-10T21:56:55.193Z,6.50
2023-10-10T21:59:27.240Z,6.80
2023-10-10T22:01:58.733Z,6.30
2023-10-10T22:04:31.272Z,7.00
2023-10-10T22:09:34.332Z,4.80
2023-10-10T22:12:08.359Z,5.80
2023-10-10T22:14:39.677Z,6.50
2023-10-10T22:17:13.393Z,6.20
2023-10-10T22:19:47.425Z,6.50
2023-10-10T22:22:19.832Z,5.70
2023-10-10T22:24:51.173Z,6.90
2023-10-10T22:27:22.873Z,7.40
2023-10-10T22:29:54.291Z,6.40
2023-10-10T22:32:27.017Z,5.00
2023-10-10T22:34:58.503Z,5.60
2023-10-10T22:37:29.923Z,5.60
2023-10-10T22:40:01.320Z,5.10
2023-10-10T22:42:33.139Z,4.80
2023-10-10T22:45:05.019Z,5.80
2023-10-10T22:47:36.399Z,5.50
2023-10-10T22:50:16.060Z,5.60
2023-10-10T22:52:47.476Z,6.20
2023-10-10T22:55:19.161Z,5.90
2023-10-10T22:57:51.692Z,5.20
2023-10-10T23:00:27.771Z,5.40
2023-10-10T23:03:01.556Z,4.90
2023-10-10T23:05:34.445Z,5.60
2023-10-10T23:08:07.097Z,5.50
2023-10-10T23:10:40.303Z,6.10
2023-10-10T23:13:14.305Z,6.20
2023-10-10T23:15:50.137Z,5.20
2023-10-10T23:18:21.937Z,4.50
2023-10-10T23:20:54.068Z,4.90
2023-10-10T23:23:27.837Z,4.70
2023-10-10T23:25:59.144Z,5.00
2023-10-10T23:28:30.509Z,5.60
2023-10-10T23:31:02.231Z,5.30
2023-10-10T23:33:33.720Z,5.80
2023-10-10T23:36:07.600Z,5.20
2023-10-10T23:38:41.466Z,5.00
2023-10-10T23:41:15.305Z,5.20
2023-10-10T23:43:47.690Z,5.30
2023-10-10T23:46:23.241Z,5.10
2023-10-10T23:48:58.453Z,4.90
2023-10-10T23:51:30.215Z,5.20
2023-10-10T23:54:01.552Z,4.90
2023-10-10T23:56:35.220Z,5.60
2023-10-10T23:59:09.309Z,5.30
